Terminal Aerodrome Forecast
Issued by NWS

Current Version | Previous Version | Text Only | Print | Product List | Glossary On
Versions: 1 2 3 4 5 6 7 8 9 10 11 12 13 14 15 16 17 18 19 20 21 22 23 24 25 26 27 28 29 30 31 32
000
FTPQ31 PGUM 260529
TAFGUM
TAF

TAF
PGRO 260529Z 2606/2706 07010KT P6SM VCSH FEW015 SCT050 BKN100=

USA.gov is the U.S. government's official web portal to all federal, state and local government web resources and services.